5 day graph

You are here

Hive Data

Page: 1 of 16645  Records: 998690

Row Date Time Hive Temp Hive Humidity Outside Temp Outside Humidity Bottom Board Temp Outside Wall Temp Electronics Temp Light Levels inHG Fan Heat Cover Notes
Clear Sorted By: Light Levels ascending, Hive Humidity ascending, Row descending
View 985453 Jun 6 2016 5:46:07pm 88.34 24 87.8 24 95 87.8 93.2 0 29.11 0 0 0 NA
View 985499 Jun 6 2016 6:32:17pm 87.44 27 88.88 26 94.55 86.9 91.4 0 29.11 0 0 0 NA
View 985498 Jun 6 2016 6:31:17pm 87.44 27 88.7 26 94.55 86.9 91.4 0 29.11 0 0 0 NA
View 985473 Jun 6 2016 6:06:12pm 87.98 27 89.06 25 95 87.8 91.4 0 29.11 0 0 0 NA
View 949313 May 11 2016 7:00:39pm 79.16 27 72.86 30 90.5 72.05 87.8 0 29.21 0 0 0 NA
View 947884 May 10 2016 7:06:46pm 78.08 27 67.82 33 88.25 67.1 86 0 29.42 0 0 0 NA
View 947873 May 10 2016 6:55:44pm 78.98 27 70.7 29 88.7 69.35 86 0 29.42 0 0 0 NA
View 985515 Jun 6 2016 6:48:21pm 86.9 28 89.78 27 94.1 86 91.4 0 29.11 0 0 0 NA
View 985514 Jun 6 2016 6:47:20pm 87.08 28 89.78 28 94.1 86 91.4 0 29.11 0 0 0 NA
View 985513 Jun 6 2016 6:46:20pm 87.08 28 89.6 27 94.1 86 91.4 0 29.11 0 0 0 NA
View 985512 Jun 6 2016 6:45:20pm 87.08 28 89.6 27 94.1 86.45 91.4 0 29.11 0 0 0 NA
View 985511 Jun 6 2016 6:44:20pm 87.08 28 89.6 27 94.1 86.45 91.4 0 29.11 0 0 0 NA
View 985510 Jun 6 2016 6:43:19pm 87.08 28 89.78 27 94.1 86.45 91.4 0 29.11 0 0 0 NA
View 985509 Jun 6 2016 6:42:19pm 87.08 28 89.78 27 94.1 86.45 91.4 0 29.11 0 0 0 NA
View 985506 Jun 6 2016 6:39:19pm 87.26 28 89.78 27 94.1 86.45 91.4 0 29.11 0 0 0 NA
View 985505 Jun 6 2016 6:38:18pm 87.08 28 89.78 27 94.1 86.45 91.4 0 29.11 0 0 0 NA
View 985504 Jun 6 2016 6:37:18pm 87.26 28 89.6 27 94.1 86.45 91.4 0 29.11 0 0 0 NA
View 985503 Jun 6 2016 6:36:18pm 87.08 28 89.42 27 94.1 86.45 91.4 0 29.11 0 0 0 NA
View 985502 Jun 6 2016 6:35:18pm 87.08 28 89.06 27 94.1 86.45 91.4 0 29.11 0 0 0 NA
View 949330 May 11 2016 7:17:42pm 77.36 28 69.08 34 89.6 69.35 86 0 29.21 0 0 0 NA
View 949321 May 11 2016 7:08:40pm 78.44 28 70.7 32 90.5 70.7 86 0 29.21 0 0 0 NA
View 947890 May 10 2016 7:12:47pm 76.46 28 66.74 34 87.8 65.75 84.2 0 29.42 0 0 0 NA
View 947888 May 10 2016 7:10:47pm 76.64 28 67.1 33 87.8 66.2 84.2 0 29.42 0 0 0 NA
View 947886 May 10 2016 7:08:47pm 77.36 28 67.46 32 87.8 66.65 84.2 0 29.42 0 0 0 NA
View 943598 May 7 2016 7:26:07pm 81.5 28 70.7 36 86 71.6 89.6 0 29.1 0 0 0 NA
View 936696 May 2 2016 7:21:31pm 80.42 28 74.3 33 89.15 72.95 91.4 0 29.2 0 0 0 NA
View 936695 May 2 2016 7:20:31pm 80.6 28 74.3 34 89.15 73.4 91.4 0 29.2 0 0 0 NA
View 936694 May 2 2016 7:19:31pm 80.96 28 74.3 33 89.15 73.4 91.4 0 29.2 0 0 0 NA
View 936692 May 2 2016 7:17:30pm 81.14 28 74.66 33 89.15 73.4 91.4 0 29.2 0 0 0 NA
View 936685 May 2 2016 7:10:29pm 81.14 28 75.2 33 89.6 74.3 91.4 0 29.19 0 0 0 NA
View 897701 Apr 5 2016 5:49:30am 88.34 28 46.58 69 45.5 49.1 69.8 0 29.76 0 0 0 NA
View 897499 Apr 5 2016 2:26:49am 88.34 28 46.58 70 45.95 48.65 69.8 0 29.73 0 0 0 NA
View 889097 Mar 30 2016 4:39:54am 80.06 28 35.42 80 36.5 48.2 62.6 0 29.34 0 0 0 NA
View 887739 Mar 29 2016 5:57:19am 71.24 28 31.64 83 32 41.45 55.4 0 29.44 0 0 0 NA
View 887738 Mar 29 2016 5:56:19am 71.42 28 31.82 83 32 41.9 57.2 0 29.44 0 0 0 NA
View 887735 Mar 29 2016 5:53:18am 71.78 28 31.82 83 32 41.9 57.2 0 29.44 0 0 0 NA
View 887720 Mar 29 2016 5:38:15am 72.32 28 31.82 85 32.45 41.9 55.4 0 29.44 0 0 0 NA
View 887652 Mar 29 2016 4:30:02am 73.4 28 32.18 84 32.9 42.35 57.2 0 29.44 0 0 0 NA
View 887602 Mar 29 2016 3:39:52am 73.04 28 32.72 83 33.8 42.35 59 0 29.44 0 0 0 NA
View 887573 Mar 29 2016 3:10:46am 74.48 28 33.08 83 34.25 43.7 59 0 29.44 0 0 0 NA
View 887571 Mar 29 2016 3:08:46am 74.66 28 32.9 84 34.25 44.15 59 0 29.43 0 0 0 NA
View 985526 Jun 6 2016 6:59:23pm 86.72 29 89.06 28 94.1 85.55 91.4 0 29.11 0 0 0 NA
View 985523 Jun 6 2016 6:56:22pm 86.9 29 89.6 28 94.1 86 91.4 0 29.11 0 0 0 NA
View 985520 Jun 6 2016 6:53:21pm 86.9 29 89.78 27 94.1 86 91.4 0 29.11 0 0 0 NA
View 985519 Jun 6 2016 6:52:21pm 86.9 29 89.96 27 94.1 86 91.4 0 29.11 0 0 0 NA
View 985518 Jun 6 2016 6:51:21pm 86.9 29 90.14 27 94.1 86 91.4 0 29.11 0 0 0 NA
View 985517 Jun 6 2016 6:50:21pm 86.9 29 89.96 27 94.1 86 91.4 0 29.11 0 0 0 NA
View 985516 Jun 6 2016 6:49:20pm 86.9 29 89.96 27 94.1 86 91.4 0 29.11 0 0 0 NA
View 984010 Jun 5 2016 5:38:07pm 95.18 29 95.36 29 98.6 95.9 96.8 0 29.13 0 0 0 NA
View 984002 Jun 5 2016 5:30:06pm 95.18 29 95.54 29 98.6 95.45 98.6 0 29.13 0 0 0 NA
View 983995 Jun 5 2016 5:23:04pm 95.18 29 95 29 99.05 95.9 98.6 0 29.13 0 0 0 NA
View 983994 Jun 5 2016 5:22:04pm 95.36 29 95 29 98.6 95.9 98.6 0 29.13 0 0 0 NA
View 983993 Jun 5 2016 5:21:04pm 95.36 29 95 29 98.6 95.9 98.6 0 29.13 0 0 0 NA
View 983992 Jun 5 2016 5:20:04pm 95.36 29 95 29 99.05 95.9 98.6 0 29.13 0 0 0 NA
View 983988 Jun 5 2016 5:16:03pm 95.18 29 95.18 28 99.05 95.9 98.6 0 29.13 0 0 0 NA
View 949343 May 11 2016 7:30:45pm 75.74 29 67.28 35 89.15 67.1 84.2 0 29.21 0 0 0 NA
View 949342 May 11 2016 7:29:45pm 75.92 29 67.28 34 89.15 67.55 84.2 0 29.21 0 0 0 NA
View 949338 May 11 2016 7:25:44pm 76.28 29 68 35 89.6 68 86 0 29.21 0 0 0 NA
View 949334 May 11 2016 7:21:43pm 76.82 29 68.54 35 89.6 68.45 86 0 29.21 0 0 0 NA
View 947891 May 10 2016 7:13:47pm 76.1 29 66.56 34 87.8 65.75 84.2 0 29.42 0 0 0 NA